sensor_id;sensor_type;location;lat;lon;timestamp;pressure;altitude;pressure_sealevel;temperature;humidity
12868;BME280;33517;49.866;8.320;2022-11-23T00:02:00;99036.16;;;6.64;100.00
12868;BME280;33517;49.866;8.320;2022-11-23T00:04:51;99034.53;;;6.63;100.00
12868;BME280;33517;49.866;8.320;2022-11-23T00:07:43;99037.03;;;6.56;100.00
12868;BME280;33517;49.866;8.320;2022-11-23T00:10:36;99028.31;;;6.64;100.00
12868;BME280;33517;49.866;8.320;2022-11-23T00:13:29;99024.66;;;6.73;100.00
12868;BME280;33517;49.866;8.320;2022-11-23T00:16:22;99020.25;;;6.73;100.00
12868;BME280;33517;49.866;8.320;2022-11-23T00:19:14;99015.31;;;6.78;100.00
12868;BME280;33517;49.866;8.320;2022-11-23T00:22:06;99022.50;;;6.76;100.00
12868;BME280;33517;49.866;8.320;2022-11-23T00:24:58;99029.00;;;6.80;100.00
12868;BME280;33517;49.866;8.320;2022-11-23T00:27:51;99023.09;;;6.86;100.00
12868;BME280;33517;49.866;8.320;2022-11-23T00:30:47;99014.19;;;6.95;99.86
12868;BME280;33517;49.866;8.320;2022-11-23T00:33:40;99024.06;;;7.08;100.00
12868;BME280;33517;49.866;8.320;2022-11-23T00:36:32;99014.06;;;7.11;99.73
12868;BME280;33517;49.866;8.320;2022-11-23T00:39:24;99020.47;;;7.23;99.41
12868;BME280;33517;49.866;8.320;2022-11-23T00:42:16;99022.38;;;7.29;98.25
12868;BME280;33517;49.866;8.320;2022-11-23T00:45:09;99021.75;;;7.27;97.94
12868;BME280;33517;49.866;8.320;2022-11-23T00:48:01;99022.75;;;7.26;98.62
12868;BME280;33517;49.866;8.320;2022-11-23T00:50:53;99027.97;;;7.26;98.59
12868;BME280;33517;49.866;8.320;2022-11-23T00:53:45;99029.31;;;7.22;97.70
12868;BME280;33517;49.866;8.320;2022-11-23T00:56:37;99029.25;;;7.30;97.99
12868;BME280;33517;49.866;8.320;2022-11-23T00:59:28;99027.47;;;7.31;97.66
12868;BME280;33517;49.866;8.320;2022-11-23T01:02:21;99033.22;;;7.26;97.32
12868;BME280;33517;49.866;8.320;2022-11-23T01:05:13;99037.63;;;7.26;98.72
12868;BME280;33517;49.866;8.320;2022-11-23T01:08:06;99034.81;;;7.27;97.83
12868;BME280;33517;49.866;8.320;2022-11-23T01:11:00;99041.41;;;7.23;97.94
12868;BME280;33517;49.866;8.320;2022-11-23T01:13:52;99047.91;;;7.27;98.06
12868;BME280;33517;49.866;8.320;2022-11-23T01:16:44;99046.09;;;7.28;97.75
12868;BME280;33517;49.866;8.320;2022-11-23T01:19:38;99040.94;;;7.20;98.24
12868;BME280;33517;49.866;8.320;2022-11-23T01:22:29;99052.47;;;7.11;98.44
12868;BME280;33517;49.866;8.320;2022-11-23T01:25:21;99050.91;;;7.02;100.00
12868;BME280;33517;49.866;8.320;2022-11-23T01:28:13;99054.59;;;6.93;100.00
12868;BME280;33517;49.866;8.320;2022-11-23T01:31:07;99062.59;;;6.91;100.00
12868;BME280;33517;49.866;8.320;2022-11-23T01:34:01;99063.19;;;6.79;100.00
12868;BME280;33517;49.866;8.320;2022-11-23T01:36:54;99063.38;;;6.77;100.00
12868;BME280;33517;49.866;8.320;2022-11-23T01:39:47;99059.88;;;6.85;100.00
12868;BME280;33517;49.866;8.320;2022-11-23T01:42:45;99053.88;;;6.99;100.00
12868;BME280;33517;49.866;8.320;2022-11-23T01:45:39;99052.59;;;6.95;100.00
12868;BME280;33517;49.866;8.320;2022-11-23T01:48:35;99062.25;;;6.94;100.00
12868;BME280;33517;49.866;8.320;2022-11-23T01:51:31;99056.97;;;7.02;100.00
12868;BME280;33517;49.866;8.320;2022-11-23T01:54:29;99054.97;;;7.04;100.00
12868;BME280;33517;49.866;8.320;2022-11-23T01:57:25;99066.25;;;7.05;100.00
12868;BME280;33517;49.866;8.320;2022-11-23T02:00:18;99064.81;;;7.02;100.00
12868;BME280;33517;49.866;8.320;2022-11-23T02:03:10;99059.41;;;7.04;100.00
12868;BME280;33517;49.866;8.320;2022-11-23T02:06:06;99062.81;;;7.04;100.00
12868;BME280;33517;49.866;8.320;2022-11-23T02:08:58;99062.03;;;7.04;100.00
12868;BME280;33517;49.866;8.320;2022-11-23T02:11:52;99062.25;;;7.17;100.00
12868;BME280;33517;49.866;8.320;2022-11-23T02:14:44;99059.56;;;7.25;100.00
12868;BME280;33517;49.866;8.320;2022-11-23T02:17:37;99070.09;;;7.31;100.00
12868;BME280;33517;49.866;8.320;2022-11-23T02:20:29;99065.44;;;7.27;100.00
12868;BME280;33517;49.866;8.320;2022-11-23T02:23:29;99062.56;;;7.14;100.00
12868;BME280;33517;49.866;8.320;2022-11-23T02:26:27;99071.78;;;7.10;100.00
12868;BME280;33517;49.866;8.320;2022-11-23T02:29:22;99068.41;;;7.01;100.00
12868;BME280;33517;49.866;8.320;2022-11-23T02:32:18;99066.06;;;7.06;100.00
12868;BME280;33517;49.866;8.320;2022-11-23T02:35:12;99062.53;;;6.99;100.00
12868;BME280;33517;49.866;8.320;2022-11-23T02:38:04;99062.19;;;7.02;100.00
12868;BME280;33517;49.866;8.320;2022-11-23T02:40:57;99059.94;;;7.14;100.00
12868;BME280;33517;49.866;8.320;2022-11-23T02:43:53;99060.78;;;7.14;100.00
12868;BME280;33517;49.866;8.320;2022-11-23T02:46:46;99063.13;;;7.09;100.00
12868;BME280;33517;49.866;8.320;2022-11-23T02:49:40;99055.78;;;7.05;100.00
12868;BME280;33517;49.866;8.320;2022-11-23T02:52:32;99062.81;;;7.04;100.00
12868;BME280;33517;49.866;8.320;2022-11-23T02:55:23;99059.59;;;7.02;100.00
12868;BME280;33517;49.866;8.320;2022-11-23T02:58:15;99056.97;;;7.02;100.00
12868;BME280;33517;49.866;8.320;2022-11-23T03:01:09;99054.97;;;7.04;100.00
12868;BME280;33517;49.866;8.320;2022-11-23T03:04:00;99054.97;;;7.04;100.00
12868;BME280;33517;49.866;8.320;2022-11-23T03:06:52;99049.41;;;7.07;100.00
12868;BME280;33517;49.866;8.320;2022-11-23T03:09:44;99053.38;;;7.18;100.00
12868;BME280;33517;49.866;8.320;2022-11-23T03:12:36;99060.19;;;7.27;100.00
12868;BME280;33517;49.866;8.320;2022-11-23T03:15:28;99058.94;;;7.37;100.00
12868;BME280;33517;49.866;8.320;2022-11-23T03:18:21;99058.03;;;7.30;100.00
12868;BME280;33517;49.866;8.320;2022-11-23T03:21:13;99057.06;;;7.46;100.00
12868;BME280;33517;49.866;8.320;2022-11-23T03:24:05;99054.16;;;7.41;100.00
12868;BME280;33517;49.866;8.320;2022-11-23T03:26:57;99064.78;;;7.25;100.00
12868;BME280;33517;49.866;8.320;2022-11-23T03:29:49;99066.31;;;7.19;100.00
12868;BME280;33517;49.866;8.320;2022-11-23T03:32:40;99070.47;;;7.28;100.00
12868;BME280;33517;49.866;8.320;2022-11-23T03:35:34;99064.78;;;7.25;100.00
12868;BME280;33517;49.866;8.320;2022-11-23T03:38:25;99064.25;;;7.29;100.00
12868;BME280;33517;49.866;8.320;2022-11-23T03:41:17;99062.06;;;7.33;100.00
12868;BME280;33517;49.866;8.320;2022-11-23T03:44:09;99060.91;;;7.35;100.00
12868;BME280;33517;49.866;8.320;2022-11-23T03:47:01;99059.81;;;7.30;100.00
12868;BME280;33517;49.866;8.320;2022-11-23T03:49:53;99053.50;;;7.24;100.00
12868;BME280;33517;49.866;8.320;2022-11-23T03:52:47;99054.47;;;7.23;100.00
12868;BME280;33517;49.866;8.320;2022-11-23T03:55:39;99057.47;;;7.20;100.00
12868;BME280;33517;49.866;8.320;2022-11-23T03:58:31;99055.75;;;7.27;100.00
12868;BME280;33517;49.866;8.320;2022-11-23T04:01:23;99060.03;;;7.43;99.82
12868;BME280;33517;49.866;8.320;2022-11-23T04:04:15;99059.38;;;7.41;99.90
12868;BME280;33517;49.866;8.320;2022-11-23T04:07:08;99057.78;;;7.40;99.93
12868;BME280;33517;49.866;8.320;2022-11-23T04:10:02;99056.78;;;7.41;99.47
12868;BME280;33517;49.866;8.320;2022-11-23T04:12:54;99059.19;;;7.28;98.79
12868;BME280;33517;49.866;8.320;2022-11-23T04:15:45;99054.81;;;7.06;99.75
12868;BME280;33517;49.866;8.320;2022-11-23T04:18:39;99058.47;;;6.97;100.00
12868;BME280;33517;49.866;8.320;2022-11-23T04:21:31;99062.94;;;6.88;100.00
12868;BME280;33517;49.866;8.320;2022-11-23T04:24:23;99055.97;;;6.81;100.00
12868;BME280;33517;49.866;8.320;2022-11-23T04:27:16;99054.69;;;6.99;100.00
12868;BME280;33517;49.866;8.320;2022-11-23T04:30:08;99061.72;;;7.21;100.00
12868;BME280;33517;49.866;8.320;2022-11-23T04:33:00;99063.84;;;7.40;100.00
12868;BME280;33517;49.866;8.320;2022-11-23T04:35:52;99065.44;;;7.41;100.00
12868;BME280;33517;49.866;8.320;2022-11-23T04:38:44;99064.44;;;7.42;100.00
12868;BME280;33517;49.866;8.320;2022-11-23T04:41:36;99064.88;;;7.31;99.66
12868;BME280;33517;49.866;8.320;2022-11-23T04:44:29;99064.09;;;7.31;100.00
12868;BME280;33517;49.866;8.320;2022-11-23T04:47:21;99060.50;;;7.09;99.83
12868;BME280;33517;49.866;8.320;2022-11-23T04:50:14;99068.03;;;7.04;100.00
12868;BME280;33517;49.866;8.320;2022-11-23T04:53:06;99068.22;;;7.03;100.00
12868;BME280;33517;49.866;8.320;2022-11-23T04:55:58;99061.84;;;7.05;100.00
12868;BME280;33517;49.866;8.320;2022-11-23T04:58:50;99064.16;;;7.23;100.00
12868;BME280;33517;49.866;8.320;2022-11-23T05:01:43;99067.56;;;7.23;100.00
12868;BME280;33517;49.866;8.320;2022-11-23T05:04:35;99064.88;;;7.31;100.00
12868;BME280;33517;49.866;8.320;2022-11-23T05:07:27;99071.69;;;7.18;100.00
12868;BME280;33517;49.866;8.320;2022-11-23T05:10:19;99063.13;;;7.09;100.00
12868;BME280;33517;49.866;8.320;2022-11-23T05:13:11;99055.84;;;6.97;100.00
12868;BME280;33517;49.866;8.320;2022-11-23T05:16:03;99060.75;;;7.00;100.00
12868;BME280;33517;49.866;8.320;2022-11-23T05:18:56;99064.00;;;7.02;100.00
12868;BME280;33517;49.866;8.320;2022-11-23T05:21:48;99071.28;;;7.06;100.00
12868;BME280;33517;49.866;8.320;2022-11-23T05:24:40;99066.06;;;7.06;100.00
12868;BME280;33517;49.866;8.320;2022-11-23T05:27:32;99063.63;;;7.05;100.00
12868;BME280;33517;49.866;8.320;2022-11-23T05:30:24;99061.25;;;6.95;100.00
12868;BME280;33517;49.866;8.320;2022-11-23T05:33:16;99067.50;;;6.94;100.00
12868;BME280;33517;49.866;8.320;2022-11-23T05:36:09;99062.44;;;6.93;100.00
12868;BME280;33517;49.866;8.320;2022-11-23T05:39:03;99074.47;;;7.02;100.00
12868;BME280;33517;49.866;8.320;2022-11-23T05:41:55;99067.59;;;7.01;100.00
12868;BME280;33517;49.866;8.320;2022-11-23T05:44:47;99070.31;;;7.07;100.00
12868;BME280;33517;49.866;8.320;2022-11-23T05:47:39;99072.19;;;7.21;100.00
12868;BME280;33517;49.866;8.320;2022-11-23T05:50:31;99067.72;;;7.07;100.00
12868;BME280;33517;49.866;8.320;2022-11-23T05:53:24;99071.66;;;7.03;100.00
12868;BME280;33517;49.866;8.320;2022-11-23T05:56:16;99069.16;;;7.10;100.00
12868;BME280;33517;49.866;8.320;2022-11-23T05:59:09;99073.13;;;7.06;100.00
12868;BME280;33517;49.866;8.320;2022-11-23T06:02:01;99077.66;;;7.12;100.00
12868;BME280;33517;49.866;8.320;2022-11-23T06:04:53;99075.06;;;7.26;100.00
12868;BME280;33517;49.866;8.320;2022-11-23T06:07:45;99078.31;;;7.28;100.00
12868;BME280;33517;49.866;8.320;2022-11-23T06:10:38;99076.41;;;7.22;100.00
12868;BME280;33517;49.866;8.320;2022-11-23T06:13:30;99069.44;;;7.15;100.00
12868;BME280;33517;49.866;8.320;2022-11-23T06:16:22;99070.09;;;7.17;100.00
12868;BME280;33517;49.866;8.320;2022-11-23T06:19:13;99075.78;;;7.20;100.00
12868;BME280;33517;49.866;8.320;2022-11-23T06:22:05;99069.41;;;7.37;100.00
12868;BME280;33517;49.866;8.320;2022-11-23T06:24:57;99081.16;;;7.41;100.00
12868;BME280;33517;49.866;8.320;2022-11-23T06:27:54;99082.69;;;7.51;100.00
12868;BME280;33517;49.866;8.320;2022-11-23T06:30:46;99078.53;;;7.41;100.00
12868;BME280;33517;49.866;8.320;2022-11-23T06:33:38;99086.50;;;7.25;100.00
12868;BME280;33517;49.866;8.320;2022-11-23T06:36:30;99089.44;;;7.30;100.00
12868;BME280;33517;49.866;8.320;2022-11-23T06:39:22;99092.63;;;7.40;100.00
12868;BME280;33517;49.866;8.320;2022-11-23T06:42:14;99085.56;;;7.41;100.00
12868;BME280;33517;49.866;8.320;2022-11-23T06:45:08;99093.78;;;7.38;100.00
12868;BME280;33517;49.866;8.320;2022-11-23T06:48:00;99090.47;;;7.44;100.00
12868;BME280;33517;49.866;8.320;2022-11-23T06:50:52;99094.63;;;7.53;100.00
12868;BME280;33517;49.866;8.320;2022-11-23T06:53:44;99096.53;;;7.59;100.00
12868;BME280;33517;49.866;8.320;2022-11-23T06:56:36;99095.44;;;7.68;100.00
12868;BME280;33517;49.866;8.320;2022-11-23T06:59:27;99101.13;;;7.72;99.68
12868;BME280;33517;49.866;8.320;2022-11-23T07:02:21;99098.06;;;7.68;99.82
12868;BME280;33517;49.866;8.320;2022-11-23T07:05:13;99105.53;;;7.57;100.00
12868;BME280;33517;49.866;8.320;2022-11-23T07:08:04;99109.44;;;7.61;99.41
12868;BME280;33517;49.866;8.320;2022-11-23T07:10:59;99104.94;;;7.69;99.31
12868;BME280;33517;49.866;8.320;2022-11-23T07:13:51;99110.59;;;7.58;99.50
12868;BME280;33517;49.866;8.320;2022-11-23T07:16:42;99119.69;;;7.47;100.00
12868;BME280;33517;49.866;8.320;2022-11-23T07:19:36;99118.25;;;7.45;99.65
12868;BME280;33517;49.866;8.320;2022-11-23T07:22:29;99114.84;;;7.59;100.00
12868;BME280;33517;49.866;8.320;2022-11-23T07:25:21;99110.91;;;7.63;99.68
12868;BME280;33517;49.866;8.320;2022-11-23T07:28:13;99110.91;;;7.78;99.36
12868;BME280;33517;49.866;8.320;2022-11-23T07:31:05;99118.94;;;7.91;99.49
12868;BME280;33517;49.866;8.320;2022-11-23T07:33:57;99116.88;;;7.86;98.00
12868;BME280;33517;49.866;8.320;2022-11-23T07:36:50;99122.09;;;7.72;96.98
12868;BME280;33517;49.866;8.320;2022-11-23T07:39:42;99124.75;;;7.49;97.92
12868;BME280;33517;49.866;8.320;2022-11-23T07:42:34;99132.03;;;7.39;98.18
12868;BME280;33517;49.866;8.320;2022-11-23T07:45:26;99132.00;;;7.24;97.98
12868;BME280;33517;49.866;8.320;2022-11-23T07:48:18;99132.41;;;7.13;99.71
12868;BME280;33517;49.866;8.320;2022-11-23T07:51:10;99137.19;;;7.10;99.60
12868;BME280;33517;49.866;8.320;2022-11-23T07:54:03;99136.53;;;7.08;100.00
12868;BME280;33517;49.866;8.320;2022-11-23T07:56:55;99137.09;;;7.18;100.00
12868;BME280;33517;49.866;8.320;2022-11-23T07:59:47;99136.63;;;7.60;99.22
12868;BME280;33517;49.866;8.320;2022-11-23T08:02:39;99139.38;;;8.54;97.47
12868;BME280;33517;49.866;8.320;2022-11-23T08:05:31;99124.34;;;9.40;92.92
12868;BME280;33517;49.866;8.320;2022-11-23T08:08:25;99125.97;;;10.17;88.64
12868;BME280;33517;49.866;8.320;2022-11-23T08:11:18;99137.28;;;12.30;83.19
12868;BME280;33517;49.866;8.320;2022-11-23T08:14:11;99126.50;;;14.19;73.29
12868;BME280;33517;49.866;8.320;2022-11-23T08:17:04;99124.31;;;15.59;67.16
12868;BME280;33517;49.866;8.320;2022-11-23T08:19:56;99133.75;;;16.47;63.25
12868;BME280;33517;49.866;8.320;2022-11-23T08:22:48;99135.56;;;17.55;64.18
12868;BME280;33517;49.866;8.320;2022-11-23T08:25:40;99139.50;;;17.52;58.00
12868;BME280;33517;49.866;8.320;2022-11-23T08:28:33;99137.13;;;18.22;58.59
12868;BME280;33517;49.866;8.320;2022-11-23T08:31:27;99145.81;;;18.72;51.40
12868;BME280;33517;49.866;8.320;2022-11-23T08:34:19;99147.59;;;19.10;52.73
12868;BME280;33517;49.866;8.320;2022-11-23T08:37:11;99145.31;;;18.15;50.57
12868;BME280;33517;49.866;8.320;2022-11-23T08:40:03;99143.47;;;19.24;51.83
12868;BME280;33517;49.866;8.320;2022-11-23T08:42:55;99140.88;;;19.56;47.14
12868;BME280;33517;49.866;8.320;2022-11-23T08:45:49;99149.34;;;18.39;51.76
12868;BME280;33517;49.866;8.320;2022-11-23T08:48:40;99144.44;;;18.10;49.52
12868;BME280;33517;49.866;8.320;2022-11-23T08:51:33;99141.97;;;18.85;53.12
12868;BME280;33517;49.866;8.320;2022-11-23T08:54:25;99140.72;;;20.09;47.92
12868;BME280;33517;49.866;8.320;2022-11-23T08:57:17;99141.19;;;18.08;48.78
12868;BME280;33517;49.866;8.320;2022-11-23T09:00:09;99140.03;;;17.37;50.84
12868;BME280;33517;49.866;8.320;2022-11-23T09:03:03;99144.53;;;16.81;53.84
12868;BME280;33517;49.866;8.320;2022-11-23T09:05:58;99141.13;;;17.25;53.22
12868;BME280;33517;49.866;8.320;2022-11-23T09:08:50;99149.13;;;16.57;52.72
12868;BME280;33517;49.866;8.320;2022-11-23T09:11:42;99144.66;;;16.11;55.48
12868;BME280;33517;49.866;8.320;2022-11-23T09:14:33;99136.16;;;17.57;52.13
12868;BME280;33517;49.866;8.320;2022-11-23T09:17:25;99135.03;;;18.24;50.83
12868;BME280;33517;49.866;8.320;2022-11-23T09:20:19;99135.91;;;17.91;49.96
12868;BME280;33517;49.866;8.320;2022-11-23T09:23:11;99133.56;;;17.95;49.66
12868;BME280;33517;49.866;8.320;2022-11-23T09:26:04;99143.50;;;17.10;51.62
12868;BME280;33517;49.866;8.320;2022-11-23T09:28:56;99144.84;;;17.85;51.06
12868;BME280;33517;49.866;8.320;2022-11-23T09:31:48;99139.22;;;19.28;50.48
12868;BME280;33517;49.866;8.320;2022-11-23T09:34:39;99148.59;;;19.30;45.91
12868;BME280;33517;49.866;8.320;2022-11-23T09:37:33;99146.00;;;18.66;47.04
12868;BME280;33517;49.866;8.320;2022-11-23T09:40:28;99147.97;;;18.15;48.84
12868;BME280;33517;49.866;8.320;2022-11-23T09:43:37;99151.31;;;19.62;47.57
12868;BME280;33517;49.866;8.320;2022-11-23T09:46:37;99148.50;;;21.29;45.64
12868;BME280;33517;49.866;8.320;2022-11-23T09:49:40;99154.44;;;21.56;42.51
12868;BME280;33517;49.866;8.320;2022-11-23T09:52:39;99157.31;;;20.53;43.82
12868;BME280;33517;49.866;8.320;2022-11-23T09:55:36;99147.84;;;19.98;44.97
12868;BME280;33517;49.866;8.320;2022-11-23T09:58:32;99150.66;;;20.60;44.45
12868;BME280;33517;49.866;8.320;2022-11-23T10:01:27;99158.25;;;19.95;43.00
12868;BME280;33517;49.866;8.320;2022-11-23T10:04:20;99147.41;;;19.43;45.39
12868;BME280;33517;49.866;8.320;2022-11-23T10:07:24;99142.31;;;19.15;45.24
12868;BME280;33517;49.866;8.320;2022-11-23T10:10:35;99138.34;;;19.76;45.51
12868;BME280;33517;49.866;8.320;2022-11-23T10:13:34;99140.81;;;20.71;42.55
12868;BME280;33517;49.866;8.320;2022-11-23T10:16:36;99138.13;;;20.66;42.56
12868;BME280;33517;49.866;8.320;2022-11-23T10:19:40;99137.94;;;18.61;45.22
12868;BME280;33517;49.866;8.320;2022-11-23T10:22:44;99137.25;;;17.94;47.01
12868;BME280;33517;49.866;8.320;2022-11-23T10:25:45;99124.63;;;18.22;47.59
12868;BME280;33517;49.866;8.320;2022-11-23T10:28:37;99123.53;;;18.40;46.06
12868;BME280;33517;49.866;8.320;2022-11-23T10:31:29;99119.72;;;19.22;45.66
12868;BME280;33517;49.866;8.320;2022-11-23T10:34:35;99116.97;;;20.07;43.44
12868;BME280;33517;49.866;8.320;2022-11-23T10:37:28;99119.91;;;20.58;43.07
12868;BME280;33517;49.866;8.320;2022-11-23T10:40:22;99118.16;;;18.78;43.86
12868;BME280;33517;49.866;8.320;2022-11-23T10:43:20;99122.06;;;18.92;46.22
12868;BME280;33517;49.866;8.320;2022-11-23T10:46:26;99116.53;;;17.96;47.11
12868;BME280;33517;49.866;8.320;2022-11-23T10:49:20;99117.94;;;16.92;48.55
12868;BME280;33517;49.866;8.320;2022-11-23T10:52:26;99108.00;;;16.36;50.44
12868;BME280;33517;49.866;8.320;2022-11-23T10:55:23;99102.50;;;16.78;50.53
12868;BME280;33517;49.866;8.320;2022-11-23T10:58:25;99090.09;;;17.39;49.81
12868;BME280;33517;49.866;8.320;2022-11-23T11:01:19;99090.44;;;17.15;49.96
12868;BME280;33517;49.866;8.320;2022-11-23T11:04:21;99094.22;;;17.19;48.86
12868;BME280;33517;49.866;8.320;2022-11-23T11:07:22;99087.28;;;16.22;51.22
12868;BME280;33517;49.866;8.320;2022-11-23T11:10:30;99074.13;;;17.39;49.85
12868;BME280;33517;49.866;8.320;2022-11-23T11:13:27;99079.97;;;17.08;49.56
12868;BME280;33517;49.866;8.320;2022-11-23T11:16:24;99086.09;;;16.81;50.00
12868;BME280;33517;49.866;8.320;2022-11-23T11:19:24;99072.88;;;16.06;51.90
12868;BME280;33517;49.866;8.320;2022-11-23T11:22:26;99074.75;;;16.57;52.20
12868;BME280;33517;49.866;8.320;2022-11-23T11:25:27;99070.59;;;16.61;51.78
12868;BME280;33517;49.866;8.320;2022-11-23T11:28:26;99055.47;;;16.50;51.51
12868;BME280;33517;49.866;8.320;2022-11-23T11:31:33;99066.50;;;16.30;50.04
12868;BME280;33517;49.866;8.320;2022-11-23T11:34:31;99049.03;;;16.34;51.13
12868;BME280;33517;49.866;8.320;2022-11-23T11:37:30;99045.84;;;16.21;51.63
12868;BME280;33517;49.866;8.320;2022-11-23T11:40:27;99041.84;;;15.84;51.78
12868;BME280;33517;49.866;8.320;2022-11-23T11:43:23;99037.31;;;15.26;53.02
12868;BME280;33517;49.866;8.320;2022-11-23T11:46:21;99037.94;;;14.99;54.37
12868;BME280;33517;49.866;8.320;2022-11-23T11:49:17;99030.94;;;14.93;53.82
12868;BME280;33517;49.866;8.320;2022-11-23T11:52:13;99021.69;;;14.95;53.96
12868;BME280;33517;49.866;8.320;2022-11-23T11:55:12;99013.66;;;15.02;54.28
12868;BME280;33517;49.866;8.320;2022-11-23T11:58:09;99010.69;;;16.02;54.36
12868;BME280;33517;49.866;8.320;2022-11-23T12:01:06;99015.44;;;16.40;49.57
12868;BME280;33517;49.866;8.320;2022-11-23T12:04:04;99011.25;;;16.44;50.71
12868;BME280;33517;49.866;8.320;2022-11-23T12:07:02;99009.38;;;16.56;49.19
12868;BME280;33517;49.866;8.320;2022-11-23T12:10:00;99011.56;;;16.19;51.12
12868;BME280;33517;49.866;8.320;2022-11-23T12:12:54;99011.19;;;16.67;50.17
12868;BME280;33517;49.866;8.320;2022-11-23T12:15:50;99026.28;;;16.38;50.60
12868;BME280;33517;49.866;8.320;2022-11-23T12:18:58;99014.56;;;16.63;51.29
12868;BME280;33517;49.866;8.320;2022-11-23T12:22:20;99021.88;;;16.44;50.18
12868;BME280;33517;49.866;8.320;2022-11-23T12:25:23;99006.69;;;16.68;48.97
12868;BME280;33517;49.866;8.320;2022-11-23T12:28:43;98999.09;;;17.21;48.04
12868;BME280;33517;49.866;8.320;2022-11-23T12:31:41;99007.19;;;16.81;47.42
12868;BME280;33517;49.866;8.320;2022-11-23T12:34:49;99008.94;;;16.59;48.37
12868;BME280;33517;49.866;8.320;2022-11-23T12:37:55;99010.78;;;16.58;48.50
12868;BME280;33517;49.866;8.320;2022-11-23T12:41:07;99001.91;;;16.13;49.71
12868;BME280;33517;49.866;8.320;2022-11-23T12:44:20;99002.69;;;16.14;50.99
12868;BME280;33517;49.866;8.320;2022-11-23T12:47:24;99000.69;;;17.05;48.43
12868;BME280;33517;49.866;8.320;2022-11-23T12:50:22;98999.25;;;17.14;47.17
12868;BME280;33517;49.866;8.320;2022-11-23T12:53:30;98996.44;;;17.04;47.17
12868;BME280;33517;49.866;8.320;2022-11-23T12:59:42;98979.97;;;16.74;48.47
12868;BME280;33517;49.866;8.320;2022-11-23T13:06:27;99008.66;;;16.32;48.65
12868;BME280;33517;49.866;8.320;2022-11-23T13:09:38;98989.16;;;16.27;48.13
12868;BME280;33517;49.866;8.320;2022-11-23T13:12:48;98992.69;;;16.04;48.48
12868;BME280;33517;49.866;8.320;2022-11-23T13:16:15;98994.59;;;16.20;48.98
12868;BME280;33517;49.866;8.320;2022-11-23T13:19:30;98985.72;;;16.26;48.66
12868;BME280;33517;49.866;8.320;2022-11-23T13:22:29;98974.59;;;16.01;48.45
12868;BME280;33517;49.866;8.320;2022-11-23T13:25:25;98970.19;;;15.44;49.85
12868;BME280;33517;49.866;8.320;2022-11-23T13:28:28;98975.44;;;15.79;50.41
12868;BME280;33517;49.866;8.320;2022-11-23T13:31:23;98973.59;;;15.67;49.44
12868;BME280;33517;49.866;8.320;2022-11-23T13:34:42;98957.03;;;14.32;53.46
12868;BME280;33517;49.866;8.320;2022-11-23T13:38:16;98952.44;;;12.87;57.66
12868;BME280;33517;49.866;8.320;2022-11-23T13:45:24;98949.50;;;12.02;60.79
12868;BME280;33517;49.866;8.320;2022-11-23T13:48:17;98944.56;;;11.74;61.94
12868;BME280;33517;49.866;8.320;2022-11-23T13:51:10;98947.00;;;11.63;63.09
12868;BME280;33517;49.866;8.320;2022-11-23T13:54:03;98943.81;;;11.48;63.84
12868;BME280;33517;49.866;8.320;2022-11-23T13:56:56;98936.34;;;11.38;64.66
12868;BME280;33517;49.866;8.320;2022-11-23T13:59:51;98930.50;;;11.23;65.27
12868;BME280;33517;49.866;8.320;2022-11-23T14:02:43;98918.34;;;11.16;64.98
12868;BME280;33517;49.866;8.320;2022-11-23T14:05:53;98918.94;;;11.04;65.93
12868;BME280;33517;49.866;8.320;2022-11-23T14:08:47;98918.38;;;10.89;65.87
12868;BME280;33517;49.866;8.320;2022-11-23T14:15:02;98906.84;;;10.71;66.41
12868;BME280;33517;49.866;8.320;2022-11-23T14:18:09;98901.78;;;10.63;66.82
12868;BME280;33517;49.866;8.320;2022-11-23T14:21:12;98895.72;;;10.56;66.85
12868;BME280;33517;49.866;8.320;2022-11-23T14:24:31;98889.66;;;10.49;66.67
12868;BME280;33517;49.866;8.320;2022-11-23T14:27:39;98894.28;;;10.40;67.81
12868;BME280;33517;49.866;8.320;2022-11-23T14:30:50;98883.34;;;10.37;68.12
12868;BME280;33517;49.866;8.320;2022-11-23T14:33:50;98891.44;;;10.42;67.40
12868;BME280;33517;49.866;8.320;2022-11-23T14:36:49;98890.44;;;10.36;68.12
12868;BME280;33517;49.866;8.320;2022-11-23T14:40:02;98893.44;;;10.27;68.77
12868;BME280;33517;49.866;8.320;2022-11-23T14:42:56;98893.81;;;10.10;70.02
12868;BME280;33517;49.866;8.320;2022-11-23T14:45:50;98902.44;;;9.98;71.08
12868;BME280;33517;49.866;8.320;2022-11-23T14:48:42;98907.47;;;9.86;71.62
12868;BME280;33517;49.866;8.320;2022-11-23T14:51:34;98908.03;;;9.82;72.14
12868;BME280;33517;49.866;8.320;2022-11-23T14:54:30;98899.97;;;9.77;70.76
12868;BME280;33517;49.866;8.320;2022-11-23T14:57:25;98893.88;;;9.70;71.55
12868;BME280;33517;49.866;8.320;2022-11-23T15:00:28;98891.00;;;9.65;71.41
12868;BME280;33517;49.866;8.320;2022-11-23T15:03:26;98886.78;;;9.64;72.43
12868;BME280;33517;49.866;8.320;2022-11-23T15:06:23;98889.25;;;9.72;71.78
12868;BME280;33517;49.866;8.320;2022-11-23T15:09:23;98899.59;;;9.80;71.43
12868;BME280;33517;49.866;8.320;2022-11-23T15:12:22;98887.88;;;9.89;71.16
12868;BME280;33517;49.866;8.320;2022-11-23T15:15:18;98891.13;;;9.97;70.66
12868;BME280;33517;49.866;8.320;2022-11-23T15:18:11;98899.25;;;10.09;70.40
12868;BME280;33517;49.866;8.320;2022-11-23T15:21:10;98896.06;;;10.13;70.29
12868;BME280;33517;49.866;8.320;2022-11-23T15:24:19;98899.50;;;10.20;70.23
12868;BME280;33517;49.866;8.320;2022-11-23T15:27:14;98897.28;;;10.24;70.07
12868;BME280;33517;49.866;8.320;2022-11-23T15:30:14;98902.34;;;10.19;70.68
12868;BME280;33517;49.866;8.320;2022-11-23T15:33:09;98900.13;;;10.16;70.56
12868;BME280;33517;49.866;8.320;2022-11-23T15:36:04;98901.88;;;10.09;70.45
12868;BME280;33517;49.866;8.320;2022-11-23T15:38:57;98909.94;;;10.01;70.73
12868;BME280;33517;49.866;8.320;2022-11-23T15:41:50;98913.75;;;9.92;71.07
12868;BME280;33517;49.866;8.320;2022-11-23T15:44:43;98908.28;;;9.87;71.03
12868;BME280;33517;49.866;8.320;2022-11-23T15:47:36;98901.03;;;9.89;71.24